sensor_id;sensor_type;location;lat;lon;timestamp;pressure;altitude;pressure_sealevel;temperature;humidity
73455;BME280;61690;51.824;6.306;2022-08-18T00:00:12;101145.00;;;24.34;56.22
73455;BME280;61690;51.824;6.306;2022-08-18T00:02:39;101145.00;;;24.34;56.33
73455;BME280;61690;51.824;6.306;2022-08-18T00:05:06;101145.00;;;24.34;56.29
73455;BME280;61690;51.824;6.306;2022-08-18T00:07:32;101140.53;;;24.35;56.50
73455;BME280;61690;51.824;6.306;2022-08-18T00:09:59;101143.88;;;24.37;56.83
73455;BME280;61690;51.824;6.306;2022-08-18T00:12:32;101136.91;;;24.36;56.94
73455;BME280;61690;51.824;6.306;2022-08-18T00:14:59;101139.69;;;24.34;56.86
73455;BME280;61690;51.824;6.306;2022-08-18T00:17:28;101139.56;;;24.36;56.80
73455;BME280;61690;51.824;6.306;2022-08-18T00:19:54;101143.19;;;24.35;57.07
73455;BME280;61690;51.824;6.306;2022-08-18T00:22:20;101137.75;;;24.36;56.80
73455;BME280;61690;51.824;6.306;2022-08-18T00:24:50;101142.22;;;24.36;57.02
73455;BME280;61690;51.824;6.306;2022-08-18T00:27:19;101143.75;;;24.38;56.81
73455;BME280;61690;51.824;6.306;2022-08-18T00:29:46;101145.59;;;24.38;56.64
73455;BME280;61690;51.824;6.306;2022-08-18T00:32:17;101139.56;;;24.36;57.06
73455;BME280;61690;51.824;6.306;2022-08-18T00:34:43;101135.09;;;24.36;56.98
73455;BME280;61690;51.824;6.306;2022-08-18T00:37:09;101140.28;;;24.38;56.77
73455;BME280;61690;51.824;6.306;2022-08-18T00:39:34;101137.75;;;24.36;56.94
73455;BME280;61690;51.824;6.306;2022-08-18T00:42:18;101142.22;;;24.36;57.05
73455;BME280;61690;51.824;6.306;2022-08-18T00:44:43;101152.56;;;24.39;56.85
73455;BME280;61690;51.824;6.306;2022-08-18T00:47:09;101153.56;;;24.38;56.82
73455;BME280;61690;51.824;6.306;2022-08-18T00:49:36;101159.84;;;24.37;57.13
73455;BME280;61690;51.824;6.306;2022-08-18T00:52:02;101166.84;;;24.38;57.25
73455;BME280;61690;51.824;6.306;2022-08-18T00:54:30;101170.47;;;24.37;57.43
73455;BME280;61690;51.824;6.306;2022-08-18T00:57:00;101165.88;;;24.39;57.13
73455;BME280;61690;51.824;6.306;2022-08-18T00:59:43;101163.50;;;24.36;56.90
73455;BME280;61690;51.824;6.306;2022-08-18T01:02:13;101161.53;;;24.38;57.02
73455;BME280;61690;51.824;6.306;2022-08-18T01:05:00;101161.53;;;24.38;57.54
73455;BME280;61690;51.824;6.306;2022-08-18T01:07:35;101164.31;;;24.36;57.06
73455;BME280;61690;51.824;6.306;2022-08-18T01:10:03;101161.78;;;24.35;57.41
73455;BME280;61690;51.824;6.306;2022-08-18T01:12:29;101167.81;;;24.37;57.59
73455;BME280;61690;51.824;6.306;2022-08-18T01:14:55;101165.16;;;24.37;57.49
73455;BME280;61690;51.824;6.306;2022-08-18T01:17:21;101166.84;;;24.38;57.35
73455;BME280;61690;51.824;6.306;2022-08-18T01:20:06;101170.22;;;24.40;57.76
73455;BME280;61690;51.824;6.306;2022-08-18T01:23:00;101164.91;;;24.40;57.51
73455;BME280;61690;51.824;6.306;2022-08-18T01:25:29;101159.72;;;24.38;57.56
73455;BME280;61690;51.824;6.306;2022-08-18T01:28:15;101159.72;;;24.38;57.53
73455;BME280;61690;51.824;6.306;2022-08-18T01:30:50;101159.59;;;24.40;57.39
73455;BME280;61690;51.824;6.306;2022-08-18T01:33:18;101154.41;;;24.38;57.42
73455;BME280;61690;51.824;6.306;2022-08-18T01:35:46;101141.94;;;24.39;57.37
73455;BME280;61690;51.824;6.306;2022-08-18T01:38:17;101142.94;;;24.38;57.72
73455;BME280;61690;51.824;6.306;2022-08-18T01:40:45;101141.94;;;24.39;57.40
73455;BME280;61690;51.824;6.306;2022-08-18T01:43:11;101146.28;;;24.40;57.76
73455;BME280;61690;51.824;6.306;2022-08-18T01:45:38;101151.75;;;24.38;57.74
73455;BME280;61690;51.824;6.306;2022-08-18T01:48:03;101148.38;;;24.36;57.69
73455;BME280;61690;51.824;6.306;2022-08-18T01:50:29;101148.25;;;24.38;57.77
73455;BME280;61690;51.824;6.306;2022-08-18T01:52:58;101153.56;;;24.38;57.56
73455;BME280;61690;51.824;6.306;2022-08-18T01:55:24;101148.97;;;24.40;57.78
73455;BME280;61690;51.824;6.306;2022-08-18T01:57:52;101150.91;;;24.38;57.76
73455;BME280;61690;51.824;6.306;2022-08-18T02:00:18;101159.84;;;24.37;58.00
73455;BME280;61690;51.824;6.306;2022-08-18T02:02:43;101163.50;;;24.36;57.92
73455;BME280;61690;51.824;6.306;2022-08-18T02:05:15;101160.56;;;24.39;57.61
73455;BME280;61690;51.824;6.306;2022-08-18T02:07:41;101165.75;;;24.40;58.00
73455;BME280;61690;51.824;6.306;2022-08-18T02:10:08;101171.19;;;24.39;57.77
73455;BME280;61690;51.824;6.306;2022-08-18T02:12:35;101169.41;;;24.39;57.63
73455;BME280;61690;51.824;6.306;2022-08-18T02:15:02;101170.34;;;24.38;57.97
73455;BME280;61690;51.824;6.306;2022-08-18T02:17:27;101165.16;;;24.37;57.83
73455;BME280;61690;51.824;6.306;2022-08-18T02:19:53;101166.84;;;24.38;57.84
73455;BME280;61690;51.824;6.306;2022-08-18T02:22:19;101171.47;;;24.36;57.84
73455;BME280;61690;51.824;6.306;2022-08-18T02:24:45;101168.81;;;24.36;58.21
73455;BME280;61690;51.824;6.306;2022-08-18T02:27:11;101157.19;;;24.37;57.83
73455;BME280;61690;51.824;6.306;2022-08-18T02:29:38;101158.19;;;24.36;57.76
73455;BME280;61690;51.824;6.306;2022-08-18T02:32:04;101159.72;;;24.38;58.04
73455;BME280;61690;51.824;6.306;2022-08-18T02:34:29;101166.84;;;24.38;58.21
73455;BME280;61690;51.824;6.306;2022-08-18T02:36:55;101158.88;;;24.38;57.93
73455;BME280;61690;51.824;6.306;2022-08-18T02:39:20;101171.19;;;24.39;58.09
73455;BME280;61690;51.824;6.306;2022-08-18T02:41:45;101163.50;;;24.36;58.29
73455;BME280;61690;51.824;6.306;2022-08-18T02:44:12;101166.84;;;24.38;58.08
73455;BME280;61690;51.824;6.306;2022-08-18T02:46:37;101170.59;;;24.35;58.06
73455;BME280;61690;51.824;6.306;2022-08-18T02:49:04;101172.06;;;24.39;57.88
73455;BME280;61690;51.824;6.306;2022-08-18T02:51:31;101165.88;;;24.39;58.34
73455;BME280;61690;51.824;6.306;2022-08-18T02:53:57;101173.13;;;24.37;58.14
73455;BME280;61690;51.824;6.306;2022-08-18T02:56:25;101178.31;;;24.38;57.98
73455;BME280;61690;51.824;6.306;2022-08-18T02:59:02;101158.88;;;24.38;57.83
73455;BME280;61690;51.824;6.306;2022-08-18T03:01:33;101164.19;;;24.38;57.99
73455;BME280;61690;51.824;6.306;2022-08-18T03:03:59;101165.88;;;24.39;58.38
73455;BME280;61690;51.824;6.306;2022-08-18T03:06:26;101166.84;;;24.38;57.75
73455;BME280;61690;51.824;6.306;2022-08-18T03:08:53;101165.16;;;24.37;57.76
73455;BME280;61690;51.824;6.306;2022-08-18T03:11:25;101158.19;;;24.36;57.71
73455;BME280;61690;51.824;6.306;2022-08-18T03:13:51;101173.84;;;24.39;57.93
73455;BME280;61690;51.824;6.306;2022-08-18T03:16:17;101176.50;;;24.39;57.56
73455;BME280;61690;51.824;6.306;2022-08-18T03:18:44;101177.22;;;24.41;57.80
73455;BME280;61690;51.824;6.306;2022-08-18T03:21:13;101174.84;;;24.38;57.99
73455;BME280;61690;51.824;6.306;2022-08-18T03:23:39;101170.47;;;24.37;57.97
73455;BME280;61690;51.824;6.306;2022-08-18T03:26:06;101160.84;;;24.36;57.51
73455;BME280;61690;51.824;6.306;2022-08-18T03:28:31;101161.41;;;24.39;57.69
73455;BME280;61690;51.824;6.306;2022-08-18T03:30:58;101165.16;;;24.37;57.61
73455;BME280;61690;51.824;6.306;2022-08-18T03:33:24;101164.91;;;24.40;57.53
73455;BME280;61690;51.824;6.306;2022-08-18T03:35:50;101164.06;;;24.39;57.84
73455;BME280;61690;51.824;6.306;2022-08-18T03:38:16;101159.84;;;24.37;57.64
73455;BME280;61690;51.824;6.306;2022-08-18T03:40:41;101163.22;;;24.39;57.55
73455;BME280;61690;51.824;6.306;2022-08-18T03:43:07;101159.59;;;24.40;57.29
73455;BME280;61690;51.824;6.306;2022-08-18T03:45:33;101161.53;;;24.38;57.31
73455;BME280;61690;51.824;6.306;2022-08-18T03:48:00;101165.44;;;24.34;58.10
73455;BME280;61690;51.824;6.306;2022-08-18T03:50:27;101160.38;;;24.31;57.94
73455;BME280;61690;51.824;6.306;2022-08-18T03:52:53;101165.94;;;24.27;58.36
73455;BME280;61690;51.824;6.306;2022-08-18T03:55:19;101172.97;;;24.29;58.07
73455;BME280;61690;51.824;6.306;2022-08-18T03:57:45;101175.16;;;24.23;58.02
73455;BME280;61690;51.824;6.306;2022-08-18T04:00:11;101165.22;;;24.25;58.42
73455;BME280;61690;51.824;6.306;2022-08-18T04:02:38;101162.72;;;24.24;58.19
73455;BME280;61690;51.824;6.306;2022-08-18T04:05:04;101169.00;;;24.23;58.40
73455;BME280;61690;51.824;6.306;2022-08-18T04:07:30;101171.09;;;24.19;58.11
73455;BME280;61690;51.824;6.306;2022-08-18T04:09:55;101176.53;;;24.18;58.20
73455;BME280;61690;51.824;6.306;2022-08-18T04:12:21;101168.53;;;24.18;58.08
73455;BME280;61690;51.824;6.306;2022-08-18T04:14:48;101171.22;;;24.18;58.27
73455;BME280;61690;51.824;6.306;2022-08-18T04:17:15;101163.38;;;24.16;58.66
73455;BME280;61690;51.824;6.306;2022-08-18T04:19:40;101166.03;;;24.16;58.10
73455;BME280;61690;51.824;6.306;2022-08-18T04:22:06;101156.50;;;24.14;58.13
73455;BME280;61690;51.824;6.306;2022-08-18T04:24:32;101168.25;;;24.11;58.13
73455;BME280;61690;51.824;6.306;2022-08-18T04:27:00;101167.13;;;24.14;57.90
73455;BME280;61690;51.824;6.306;2022-08-18T04:29:27;101169.06;;;24.12;58.26
73455;BME280;61690;51.824;6.306;2022-08-18T04:31:53;101175.38;;;24.11;57.90
73455;BME280;61690;51.824;6.306;2022-08-18T04:34:20;101177.19;;;24.10;57.83
73455;BME280;61690;51.824;6.306;2022-08-18T04:36:47;101166.69;;;24.09;58.02
73455;BME280;61690;51.824;6.306;2022-08-18T04:39:13;101167.78;;;24.06;57.84
73455;BME280;61690;51.824;6.306;2022-08-18T04:41:40;101173.94;;;24.06;57.38
73455;BME280;61690;51.824;6.306;2022-08-18T04:44:07;101187.38;;;24.05;57.48
73455;BME280;61690;51.824;6.306;2022-08-18T04:46:41;101183.00;;;24.04;57.52
73455;BME280;61690;51.824;6.306;2022-08-18T04:49:09;101179.66;;;24.02;57.60
73455;BME280;61690;51.824;6.306;2022-08-18T04:51:35;101190.16;;;24.03;57.51
73455;BME280;61690;51.824;6.306;2022-08-18T04:54:00;101194.75;;;24.01;57.42
73455;BME280;61690;51.824;6.306;2022-08-18T04:56:33;101194.03;;;23.99;57.50
73455;BME280;61690;51.824;6.306;2022-08-18T04:59:08;101203.09;;;23.97;57.32
73455;BME280;61690;51.824;6.306;2022-08-18T05:01:39;101204.09;;;23.96;57.15
73455;BME280;61690;51.824;6.306;2022-08-18T05:04:06;101205.16;;;23.93;57.33
73455;BME280;61690;51.824;6.306;2022-08-18T05:06:32;101217.38;;;23.96;57.05
73455;BME280;61690;51.824;6.306;2022-08-18T05:09:04;101221.69;;;23.97;57.20
73455;BME280;61690;51.824;6.306;2022-08-18T05:11:30;101232.59;;;23.94;56.87
73455;BME280;61690;51.824;6.306;2022-08-18T05:14:04;101227.28;;;23.94;57.20
73455;BME280;61690;51.824;6.306;2022-08-18T05:16:30;101232.72;;;23.92;56.98
73455;BME280;61690;51.824;6.306;2022-08-18T05:19:01;101224.41;;;23.85;57.15
73455;BME280;61690;51.824;6.306;2022-08-18T05:21:28;101226.09;;;23.86;56.92
73455;BME280;61690;51.824;6.306;2022-08-18T05:23:54;101214.50;;;23.87;56.81
73455;BME280;61690;51.824;6.306;2022-08-18T05:26:20;101209.84;;;23.25;58.65
73455;BME280;61690;51.824;6.306;2022-08-18T05:28:45;101219.38;;;22.82;59.86
73455;BME280;61690;51.824;6.306;2022-08-18T05:31:16;101216.19;;;22.43;60.61
73455;BME280;61690;51.824;6.306;2022-08-18T05:33:43;101223.56;;;22.16;61.51
73455;BME280;61690;51.824;6.306;2022-08-18T05:36:56;101222.22;;;22.10;61.88
73455;BME280;61690;51.824;6.306;2022-08-18T05:40:07;101228.34;;;22.10;61.84
73455;BME280;61690;51.824;6.306;2022-08-18T05:42:15;101218.22;;;22.40;60.94
73455;BME280;61690;51.824;6.306;2022-08-18T05:44:47;101213.31;;;22.46;60.90
73455;BME280;61690;51.824;6.306;2022-08-18T05:47:28;101216.41;;;22.29;61.43
73455;BME280;61690;51.824;6.306;2022-08-18T05:49:56;101219.59;;;22.79;59.81
73455;BME280;61690;51.824;6.306;2022-08-18T05:52:30;101220.69;;;22.77;59.75
73455;BME280;61690;51.824;6.306;2022-08-18T05:55:11;101225.00;;;22.66;60.08
73455;BME280;61690;51.824;6.306;2022-08-18T05:58:03;101227.94;;;22.86;59.50
73455;BME280;61690;51.824;6.306;2022-08-18T06:00:30;101217.78;;;23.02;59.45
73455;BME280;61690;51.824;6.306;2022-08-18T06:03:11;101222.94;;;22.47;61.00
73455;BME280;61690;51.824;6.306;2022-08-18T06:05:48;101212.94;;;22.62;60.50
73455;BME280;61690;51.824;6.306;2022-08-18T06:08:16;101224.88;;;22.34;61.35
73455;BME280;61690;51.824;6.306;2022-08-18T06:10:48;101224.03;;;22.45;61.04
73455;BME280;61690;51.824;6.306;2022-08-18T06:13:18;101227.22;;;22.73;60.57
73455;BME280;61690;51.824;6.306;2022-08-18T06:15:58;101228.81;;;23.09;59.49
73455;BME280;61690;51.824;6.306;2022-08-18T06:31:39;101240.91;;;22.20;62.21
73455;BME280;61690;51.824;6.306;2022-08-18T06:37:00;101245.38;;;22.19;62.15
73455;BME280;61690;51.824;6.306;2022-08-18T06:39:35;101251.41;;;22.21;62.02
73455;BME280;61690;51.824;6.306;2022-08-18T06:42:05;101245.66;;;22.03;62.83
73455;BME280;61690;51.824;6.306;2022-08-18T06:44:47;101247.91;;;22.21;62.45
73455;BME280;61690;51.824;6.306;2022-08-18T06:50:20;101255.22;;;22.06;62.61
73455;BME280;61690;51.824;6.306;2022-08-18T06:52:58;101252.03;;;22.01;62.54
73455;BME280;61690;51.824;6.306;2022-08-18T06:55:42;101252.41;;;21.96;63.05
73455;BME280;61690;51.824;6.306;2022-08-18T07:00:42;101258.47;;;21.85;63.31
73455;BME280;61690;51.824;6.306;2022-08-18T07:03:16;101260.41;;;22.07;62.57
73455;BME280;61690;51.824;6.306;2022-08-18T07:08:45;101275.41;;;22.07;62.71
73455;BME280;61690;51.824;6.306;2022-08-18T07:13:39;101276.78;;;22.37;61.98
73455;BME280;61690;51.824;6.306;2022-08-18T07:16:23;101279.31;;;22.38;62.08
73455;BME280;61690;51.824;6.306;2022-08-18T07:18:49;101286.50;;;22.71;60.56
73455;BME280;61690;51.824;6.306;2022-08-18T07:21:33;101294.22;;;22.63;61.03
73455;BME280;61690;51.824;6.306;2022-08-18T07:27:00;101281.34;;;22.35;61.54
73455;BME280;61690;51.824;6.306;2022-08-18T07:29:33;101278.38;;;22.15;62.51
73455;BME280;61690;51.824;6.306;2022-08-18T07:32:03;101281.63;;;22.43;61.45
73455;BME280;61690;51.824;6.306;2022-08-18T07:34:36;101277.28;;;22.18;61.96
73455;BME280;61690;51.824;6.306;2022-08-18T07:37:52;101279.00;;;22.54;61.24
73455;BME280;61690;51.824;6.306;2022-08-18T07:40:34;101281.41;;;22.68;60.75
73455;BME280;61690;51.824;6.306;2022-08-18T07:43:32;101288.66;;;22.78;60.42
73455;BME280;61690;51.824;6.306;2022-08-18T07:46:15;101284.72;;;22.37;60.58
73455;BME280;61690;51.824;6.306;2022-08-18T07:48:41;101292.19;;;22.31;60.83
73455;BME280;61690;51.824;6.306;2022-08-18T07:51:22;101286.22;;;22.52;60.48
73455;BME280;61690;51.824;6.306;2022-08-18T07:54:17;101287.47;;;22.70;59.86
73455;BME280;61690;51.824;6.306;2022-08-18T07:57:05;101284.22;;;22.89;59.48
73455;BME280;61690;51.824;6.306;2022-08-18T08:02:33;101282.19;;;22.35;60.56
73455;BME280;61690;51.824;6.306;2022-08-18T08:08:09;101268.16;;;22.57;59.88
73455;BME280;61690;51.824;6.306;2022-08-18T08:14:44;101264.47;;;22.94;59.18
73455;BME280;61690;51.824;6.306;2022-08-18T08:17:24;101266.03;;;22.85;59.44
73455;BME280;61690;51.824;6.306;2022-08-18T08:23:01;101275.09;;;22.94;59.06
73455;BME280;61690;51.824;6.306;2022-08-18T08:25:53;101278.06;;;22.89;59.12
73455;BME280;61690;51.824;6.306;2022-08-18T08:31:09;101286.13;;;22.76;59.35
73455;BME280;61690;51.824;6.306;2022-08-18T08:33:52;101284.50;;;22.51;60.19
73455;BME280;61690;51.824;6.306;2022-08-18T08:36:26;101285.53;;;22.84;59.36
73455;BME280;61690;51.824;6.306;2022-08-18T08:39:26;101286.03;;;23.00;59.15
73455;BME280;61690;51.824;6.306;2022-08-18T08:42:06;101287.75;;;23.13;58.70
73455;BME280;61690;51.824;6.306;2022-08-18T08:44:45;101284.03;;;23.26;58.42
73455;BME280;61690;51.824;6.306;2022-08-18T08:47:22;101291.13;;;23.26;58.38
73455;BME280;61690;51.824;6.306;2022-08-18T08:50:03;101291.88;;;23.05;58.78
73455;BME280;61690;51.824;6.306;2022-08-18T08:52:39;101293.31;;;23.32;58.01
73455;BME280;61690;51.824;6.306;2022-08-18T08:55:25;101300.69;;;23.28;58.48
73455;BME280;61690;51.824;6.306;2022-08-18T08:58:15;101299.94;;;23.38;58.14
73455;BME280;61690;51.824;6.306;2022-08-18T09:00:42;101299.69;;;23.41;58.24
73455;BME280;61690;51.824;6.306;2022-08-18T09:13:59;101307.00;;;23.71;57.15
73455;BME280;61690;51.824;6.306;2022-08-18T09:24:58;101310.69;;;23.47;57.76
73455;BME280;61690;51.824;6.306;2022-08-18T09:27:44;101319.88;;;23.43;57.82
73455;BME280;61690;51.824;6.306;2022-08-18T09:36:27;101319.59;;;23.24;58.15
73455;BME280;61690;51.824;6.306;2022-08-18T09:41:58;101314.56;;;23.32;57.87
73455;BME280;61690;51.824;6.306;2022-08-18T10:00:37;101295.75;;;23.90;56.47
73455;BME280;61690;51.824;6.306;2022-08-18T10:03:10;101305.19;;;23.83;56.68
73455;BME280;61690;51.824;6.306;2022-08-18T10:05:37;101308.72;;;23.72;56.29
73455;BME280;61690;51.824;6.306;2022-08-18T10:13:37;101319.41;;;23.93;56.22
73455;BME280;61690;51.824;6.306;2022-08-18T10:24:21;101312.50;;;24.02;55.88
73455;BME280;61690;51.824;6.306;2022-08-18T10:39:47;101304.03;;;24.08;56.85
73455;BME280;61690;51.824;6.306;2022-08-18T10:42:27;101300.41;;;24.09;56.98
73455;BME280;61690;51.824;6.306;2022-08-18T10:45:05;101302.94;;;24.11;56.98
73455;BME280;61690;51.824;6.306;2022-08-18T10:47:32;101301.84;;;24.13;56.80
73455;BME280;61690;51.824;6.306;2022-08-18T10:50:04;101299.91;;;24.15;56.25
73455;BME280;61690;51.824;6.306;2022-08-18T10:55:31;101304.25;;;24.16;56.29
73455;BME280;61690;51.824;6.306;2022-08-18T11:04:10;101302.75;;;24.23;55.78
73455;BME280;61690;51.824;6.306;2022-08-18T11:06:27;101296.13;;;24.18;55.35
73455;BME280;61690;51.824;6.306;2022-08-18T11:08:59;101294.72;;;24.14;55.42
73455;BME280;61690;51.824;6.306;2022-08-18T11:11:33;101292.63;;;24.17;55.00
73455;BME280;61690;51.824;6.306;2022-08-18T11:19:42;101291.59;;;24.30;55.23
73455;BME280;61690;51.824;6.306;2022-08-18T11:24:49;101276.25;;;24.33;55.10
73455;BME280;61690;51.824;6.306;2022-08-18T11:27:20;101267.19;;;24.36;54.85
73455;BME280;61690;51.824;6.306;2022-08-18T11:29:46;101273.22;;;24.38;55.14
73455;BME280;61690;51.824;6.306;2022-08-18T11:32:30;101268.13;;;24.35;55.23
73455;BME280;61690;51.824;6.306;2022-08-18T11:37:26;101264.25;;;24.39;55.16
73455;BME280;61690;51.824;6.306;2022-08-18T11:39:58;101256.16;;;24.40;54.84
73455;BME280;61690;51.824;6.306;2022-08-18T11:42:33;101255.03;;;24.43;55.28
73455;BME280;61690;51.824;6.306;2022-08-18T11:45:16;101255.31;;;24.40;54.11
73455;BME280;61690;51.824;6.306;2022-08-18T11:56:23;101243.25;;;24.36;53.34
73455;BME280;61690;51.824;6.306;2022-08-18T11:58:55;101235.00;;;24.18;53.18
73455;BME280;61690;51.824;6.306;2022-08-18T12:01:48;101227.50;;;24.23;52.74
73455;BME280;61690;51.824;6.306;2022-08-18T12:04:27;101214.59;;;24.39;52.69
73455;BME280;61690;51.824;6.306;2022-08-18T12:09:31;101217.50;;;24.36;53.03
73455;BME280;61690;51.824;6.306;2022-08-18T12:12:02;101206.91;;;24.46;52.53
73455;BME280;61690;51.824;6.306;2022-08-18T12:14:32;101200.34;;;24.50;52.68
73455;BME280;61690;51.824;6.306;2022-08-18T12:16:58;101213.16;;;24.56;53.18
73455;BME280;61690;51.824;6.306;2022-08-18T12:19:24;101219.47;;;24.55;52.71
73455;BME280;61690;51.824;6.306;2022-08-18T12:21:55;101215.09;;;24.54;52.46
73455;BME280;61690;51.824;6.306;2022-08-18T12:24:27;101214.41;;;24.52;52.79
73455;BME280;61690;51.824;6.306;2022-08-18T12:26:53;101202.25;;;24.59;52.47
73455;BME280;61690;51.824;6.306;2022-08-18T12:29:20;101204.78;;;24.61;51.84
73455;BME280;61690;51.824;6.306;2022-08-18T12:31:48;101206.75;;;24.59;52.20
73455;BME280;61690;51.824;6.306;2022-08-18T12:34:18;101202.00;;;24.62;52.21
73455;BME280;61690;51.824;6.306;2022-08-18T12:36:45;101196.09;;;24.59;52.24
73455;BME280;61690;51.824;6.306;2022-08-18T12:39:11;101200.31;;;24.61;51.87
73455;BME280;61690;51.824;6.306;2022-08-18T12:41:37;101200.63;;;24.68;52.03
73455;BME280;61690;51.824;6.306;2022-08-18T12:44:03;101199.78;;;24.68;52.43
73455;BME280;61690;51.824;6.306;2022-08-18T12:46:28;101198.81;;;24.69;52.06
73455;BME280;61690;51.824;6.306;2022-08-18T12:48:54;101199.53;;;24.71;52.20
73455;BME280;61690;51.824;6.306;2022-08-18T12:51:20;101200.94;;;24.75;52.08
73455;BME280;61690;51.824;6.306;2022-08-18T12:53:45;101208.09;;;24.74;51.73
73455;BME280;61690;51.824;6.306;2022-08-18T12:56:31;101209.88;;;24.74;51.36
73455;BME280;61690;51.824;6.306;2022-08-18T12:59:01;101219.44;;;24.76;51.55
73455;BME280;61690;51.824;6.306;2022-08-18T13:01:27;101221.09;;;24.77;51.79
73455;BME280;61690;51.824;6.306;2022-08-18T13:03:54;101218.31;;;24.79;51.15
73455;BME280;61690;51.824;6.306;2022-08-18T13:06:23;101228.81;;;24.80;51.76
73455;BME280;61690;51.824;6.306;2022-08-18T13:08:49;101232.31;;;24.81;51.65
73455;BME280;61690;51.824;6.306;2022-08-18T13:11:17;101236.69;;;24.82;51.82
73455;BME280;61690;51.824;6.306;2022-08-18T13:13:43;101237.25;;;24.85;51.66
73455;BME280;61690;51.824;6.306;2022-08-18T13:16:09;101239.75;;;24.87;51.16
73455;BME280;61690;51.824;6.306;2022-08-18T13:18:36;101232.63;;;24.88;51.47
73455;BME280;61690;51.824;6.306;2022-08-18T13:21:06;101241.34;;;24.90;51.34
73455;BME280;61690;51.824;6.306;2022-08-18T13:23:32;101245.66;;;24.91;51.35
73455;BME280;61690;51.824;6.306;2022-08-18T13:25:59;101250.03;;;24.92;50.76
73455;BME280;61690;51.824;6.306;2022-08-18T13:28:25;101255.06;;;24.95;50.82
73455;BME280;61690;51.824;6.306;2022-08-18T13:30:51;101259.25;;;24.88;51.58
73455;BME280;61690;51.824;6.306;2022-08-18T13:33:17;101253.66;;;24.91;51.28
73455;BME280;61690;51.824;6.306;2022-08-18T13:35:43;101248.19;;;24.92;51.13
73455;BME280;61690;51.824;6.306;2022-08-18T13:38:09;101247.22;;;24.93;51.51
73455;BME280;61690;51.824;6.306;2022-08-18T13:40:36;101241.91;;;24.93;51.47
73455;BME280;61690;51.824;6.306;2022-08-18T13:43:02;101242.50;;;24.97;51.19
73455;BME280;61690;51.824;6.306;2022-08-18T13:45:28;101248.91;;;24.94;51.08
73455;BME280;61690;51.824;6.306;2022-08-18T13:47:54;101239.97;;;24.95;51.46
73455;BME280;61690;51.824;6.306;2022-08-18T13:50:19;101230.97;;;24.96;51.44
73455;BME280;61690;51.824;6.306;2022-08-18T13:52:45;101234.63;;;24.95;51.32
73455;BME280;61690;51.824;6.306;2022-08-18T13:55:14;101229.88;;;24.99;51.18
73455;BME280;61690;51.824;6.306;2022-08-18T13:57:41;101227.94;;;25.01;51.17
73455;BME280;61690;51.824;6.306;2022-08-18T14:00:14;101223.69;;;24.98;51.49
73455;BME280;61690;51.824;6.306;2022-08-18T14:02:40;101219.94;;;25.01;51.00
73455;BME280;61690;51.824;6.306;2022-08-18T14:05:06;101220.78;;;25.01;51.27
73455;BME280;61690;51.824;6.306;2022-08-18T14:07:34;101224.41;;;25.00;51.64
73455;BME280;61690;51.824;6.306;2022-08-18T14:10:00;101217.53;;;24.98;51.07
73455;BME280;61690;51.824;6.306;2022-08-18T14:12:25;101220.78;;;25.01;51.30
73455;BME280;61690;51.824;6.306;2022-08-18T14:14:52;101219.78;;;25.02;51.09
73455;BME280;61690;51.824;6.306;2022-08-18T14:17:19;101216.16;;;25.03;50.98
73455;BME280;61690;51.824;6.306;2022-08-18T14:19:45;101219.94;;;25.01;51.24
73455;BME280;61690;51.824;6.306;2022-08-18T14:22:29;101214.34;;;25.04;51.46
73455;BME280;61690;51.824;6.306;2022-08-18T14:25:13;101207.47;;;25.01;51.50
73455;BME280;61690;51.824;6.306;2022-08-18T14:27:58;101201.72;;;25.06;51.36
73455;BME280;61690;51.824;6.306;2022-08-18T14:30:24;101203.69;;;25.04;50.95
73455;BME280;61690;51.824;6.306;2022-08-18T14:32:50;101205.81;;;25.10;51.25
73455;BME280;61690;51.824;6.306;2022-08-18T14:35:20;101211.00;;;25.12;50.87
73455;BME280;61690;51.824;6.306;2022-08-18T14:37:47;101194.31;;;25.10;50.57
73455;BME280;61690;51.824;6.306;2022-08-18T14:40:12;101194.31;;;25.10;50.33
73455;BME280;61690;51.824;6.306;2022-08-18T14:42:38;101196.03;;;25.11;50.34
73455;BME280;61690;51.824;6.306;2022-08-18T14:45:05;101195.03;;;25.12;50.21
73455;BME280;61690;51.824;6.306;2022-08-18T14:47:31;101197.56;;;25.13;49.71
73455;BME280;61690;51.824;6.306;2022-08-18T14:50:00;101199.09;;;25.16;50.81
73455;BME280;61690;51.824;6.306;2022-08-18T14:52:26;101193.63;;;25.08;50.60
73455;BME280;61690;51.824;6.306;2022-08-18T14:54:52;101199.78;;;25.08;50.16
73455;BME280;61690;51.824;6.306;2022-08-18T14:57:19;101197.69;;;25.12;50.43
73455;BME280;61690;51.824;6.306;2022-08-18T14:59:44;101202.72;;;25.05;51.44
73455;BME280;61690;51.824;6.306;2022-08-18T15:02:11;101193.34;;;25.01;51.58
73455;BME280;61690;51.824;6.306;2022-08-18T15:04:37;101186.75;;;25.05;51.15
73455;BME280;61690;51.824;6.306;2022-08-18T15:07:03;101180.28;;;24.98;51.27
73455;BME280;61690;51.824;6.306;2022-08-18T15:09:29;101185.63;;;25.08;51.41
73455;BME280;61690;51.824;6.306;2022-08-18T15:11:56;101188.16;;;25.09;51.36
73455;BME280;61690;51.824;6.306;2022-08-18T15:14:27;101186.78;;;25.15;51.42
73455;BME280;61690;51.824;6.306;2022-08-18T15:16:55;101191.97;;;25.16;51.39
73455;BME280;61690;51.824;6.306;2022-08-18T15:19:21;101195.44;;;25.07;51.54
73455;BME280;61690;51.824;6.306;2022-08-18T15:21:47;101193.78;;;25.16;51.37
73455;BME280;61690;51.824;6.306;2022-08-18T15:24:31;101194.22;;;25.21;50.95
73455;BME280;61690;51.824;6.306;2022-08-18T15:27:15;101189.44;;;25.15;51.01
73455;BME280;61690;51.824;6.306;2022-08-18T15:29:41;101189.69;;;25.12;51.46
73455;BME280;61690;51.824;6.306;2022-08-18T15:32:07;101180.47;;;25.16;50.89
73455;BME280;61690;51.824;6.306;2022-08-18T15:34:33;101188.88;;;25.21;50.76